Bookmark and Share
Track history (hours):
 

MSC Ines

Last reported at 2014-Apr-16 10:06 UTC. Time now 2014-Apr-16 13:43 UTC.
Position N 22°48' E 116°60'.

Length 349 m; draft 10.7 m.

Type: Ship (hazmat cat A). MMSI: 356112000.

NotesDate/timePositionNaut miles runAvg speedWind from/ knotsBaromVisibWave heightAir tempDewpointWater temp
2014-Apr-16 10:06N 22°48' E 116°60'1018.4
2014-Apr-16 09:32N 22°54' E 117°09'1818.3
2014-Apr-16 08:33N 23°05' E 117°25'1818.1
2014-Apr-16 07:33N 23°16' E 117°40'1919.4
2014-Apr-16 06:33N 23°29' E 117°55'1919.0
2014-Apr-16 05:33N 23°42' E 118°11'1919.0
2014-Apr-16 04:33N 23°51' E 118°29'1918.7
2014-Apr-16 03:32N 24°01' E 118°47'2318.6
2014-Apr-16 02:19N 24°13' E 119°08'1618.4
2014-Apr-16 01:28N 24°21' E 119°23'333 9.5
2014-Apr-14 14:33N 28°48' E 123°05'1717.2
2014-Apr-14 13:33N 29°05' E 123°05'5016.6
2014-Apr-14 10:34N 29°55' E 123°05'3316.0
2014-Apr-14 08:30N 30°25' E 122°49'1617.4
2014-Apr-14 07:34N 30°31' E 122°32'2612.8
2014-Apr-14 05:33N 30°38' E 122°03'1 0.1
2014-Apr-13 18:28N 30°37' E 122°03'1111.7
2014-Apr-13 17:33N 30°34' E 122°15'5 4.6
2014-Apr-13 16:31N 30°33' E 122°21'1211.5
2014-Apr-13 15:28N 30°31' E 122°34'  
2014-Apr-11 11:04N 31°59' E 125°48'246 7.8
2014-Apr-10 03:33N 34°59' E 129°10'  

Dump ship's entire track history

sailing weather and tide predictions

MSC Ines — 3EFZ3 — position and weather